Time;durP1;ratioP1;P1;durP2;ratioP2;P2;SDS_P1;SDS_P2;PMS_P1;PMS_P2;Temp;Humidity;BMP_temperature;BMP_pressure;BME280_temperature;BME280_humidity;BME280_pressure;Samples;Min_cycle;Max_cycle;Signal;HPM_P1;HPM_P2
2021/11/13 00:02:22;;;;;;;15.57;2.10;;;;;;;16.11;66.58;100132.34;4862335;29;20037;-95
2021/11/13 00:04:48;;;;;;;4.50;0.75;;;;;;;16.09;66.64;100121.06;4861928;29;20093;-95
2021/11/13 00:07:13;;;;;;;6.25;1.10;;;;;;;15.99;66.91;100142.28;4862269;29;20385;-94
2021/11/13 00:09:39;;;;;;;4.45;1.05;;;;;;;15.77;67.03;100154.91;4862069;29;20536;-94
2021/11/13 00:12:05;;;;;;;7.07;1.42;;;;;;;15.96;67.09;100145.25;4862034;29;20030;-96
2021/11/13 00:14:31;;;;;;;6.22;2.08;;;;;;;15.88;67.61;100132.72;4861963;29;20467;-95
2021/11/13 00:16:57;;;;;;;9.23;1.13;;;;;;;15.94;67.26;100144.56;4862221;29;20030;-95
2021/11/13 00:19:22;;;;;;;7.40;1.20;;;;;;;15.79;66.94;100134.41;4861753;29;20041;-95
2021/11/13 00:21:47;;;;;;;6.97;1.38;;;;;;;15.69;67.42;100136.25;4861697;29;20033;-95
2021/11/13 00:24:13;;;;;;;3.63;1.42;;;;;;;15.74;67.27;100136.69;4861729;29;20022;-94
2021/11/13 00:26:39;;;;;;;8.25;1.25;;;;;;;15.62;67.96;100129.84;4861817;29;20383;-95
2021/11/13 00:29:05;;;;;;;7.63;1.33;;;;;;;15.79;67.20;100115.06;4861861;29;20031;-94
2021/11/13 00:31:31;;;;;;;5.13;1.23;;;;;;;15.57;67.40;100124.16;4862083;29;20030;-95
2021/11/13 00:33:56;;;;;;;6.88;1.25;;;;;;;15.61;67.56;100125.53;4861573;29;20033;-94
2021/11/13 00:36:22;;;;;;;5.30;1.02;;;;;;;15.64;67.46;100141.16;4861642;29;20037;-95
2021/11/13 00:38:47;;;;;;;4.10;1.10;;;;;;;15.42;68.29;100151.06;4861702;29;20033;-94
2021/11/13 00:41:12;;;;;;;7.95;1.05;;;;;;;15.84;66.89;100152.53;4861449;29;20022;-94
2021/11/13 00:43:38;;;;;;;7.13;1.30;;;;;;;15.82;67.15;100154.50;4861527;29;20072;-95
2021/11/13 00:46:04;;;;;;;3.53;0.80;;;;;;;15.77;67.18;100162.84;4861462;29;20029;-94
2021/11/13 00:48:30;;;;;;;3.28;0.88;;;;;;;15.67;66.62;100164.66;4861042;29;20730;-94
2021/11/13 00:50:55;;;;;;;3.97;0.93;;;;;;;15.66;67.35;100155.06;4861105;29;20199;-94
2021/11/13 00:53:20;;;;;;;6.20;1.08;;;;;;;15.76;66.54;100155.91;4861161;29;20066;-94
2021/11/13 00:55:46;;;;;;;5.43;1.63;;;;;;;15.79;66.51;100154.78;4861477;29;20052;-94
2021/11/13 00:58:11;;;;;;;6.28;1.23;;;;;;;15.88;66.86;100158.34;4861054;29;20133;-94
2021/11/13 01:00:37;;;;;;;3.25;1.15;;;;;;;15.84;66.59;100165.78;4861508;29;20487;-94
2021/11/13 01:03:02;;;;;;;3.95;1.40;;;;;;;15.73;67.29;100169.41;4861355;29;20055;-94
2021/11/13 01:05:28;;;;;;;10.13;2.20;;;;;;;15.72;67.16;100174.81;4861114;29;20481;-94
2021/11/13 01:07:53;;;;;;;13.05;1.70;;;;;;;15.71;66.90;100171.34;4861600;29;20404;-95
2021/11/13 01:10:20;;;;;;;7.65;1.58;;;;;;;15.64;67.13;100170.25;4861227;29;20497;-95
2021/11/13 01:12:47;;;;;;;9.70;1.42;;;;;;;15.63;66.92;100163.28;4860797;29;20529;-94
2021/11/13 01:15:16;;;;;;;8.02;1.73;;;;;;;15.74;66.47;100175.53;4860828;29;20029;-94
2021/11/13 01:17:41;;;;;;;7.63;1.63;;;;;;;15.42;67.47;100171.38;4860248;29;20517;-94
2021/11/13 01:20:09;;;;;;;5.90;1.42;;;;;;;15.34;67.51;100172.09;4860486;29;20053;-95
2021/11/13 01:22:35;;;;;;;8.05;1.40;;;;;;;15.31;67.63;100175.03;4860543;29;20033;-95
2021/11/13 01:25:01;;;;;;;8.73;1.42;;;;;;;15.27;67.28;100185.03;4860533;29;20166;-94
2021/11/13 01:27:26;;;;;;;9.45;1.50;;;;;;;15.33;67.10;100193.41;4860153;29;20113;-94
2021/11/13 01:29:51;;;;;;;7.20;1.48;;;;;;;15.29;67.71;100198.13;4860574;29;20480;-94
2021/11/13 01:32:17;;;;;;;10.18;1.55;;;;;;;15.19;67.66;100187.56;4860579;29;20052;-95
2021/11/13 01:34:43;;;;;;;7.18;1.67;;;;;;;15.32;67.49;100197.84;4860055;29;20048;-94
2021/11/13 01:37:09;;;;;;;6.82;1.25;;;;;;;15.30;67.35;100198.97;4860104;29;20034;-94
2021/11/13 01:39:36;;;;;;;7.20;1.58;;;;;;;15.33;67.32;100186.31;4860483;29;20104;-94
2021/11/13 01:42:02;;;;;;;5.13;1.50;;;;;;;15.26;67.59;100185.19;4860468;29;20029;-94
2021/11/13 01:44:28;;;;;;;6.32;1.50;;;;;;;15.18;67.38;100187.69;4860336;29;20101;-94
2021/11/13 01:46:53;;;;;;;8.73;1.60;;;;;;;15.19;67.19;100202.59;4860010;29;20450;-95
2021/11/13 01:49:19;;;;;;;8.27;1.20;;;;;;;15.07;67.91;100208.03;4860018;29;20034;-94
2021/11/13 01:51:46;;;;;;;9.93;2.35;;;;;;;15.18;67.48;100212.31;4860416;29;20032;-94
2021/11/13 01:54:12;;;;;;;4.97;1.52;;;;;;;15.13;67.36;100216.38;4860357;29;20030;-95
2021/11/13 01:56:39;;;;;;;5.38;1.15;;;;;;;15.14;67.82;100225.97;4860717;29;20044;-95
2021/11/13 01:59:06;;;;;;;4.80;1.30;;;;;;;15.12;67.63;100228.75;4860232;29;20729;-94
2021/11/13 02:01:32;;;;;;;3.85;1.08;;;;;;;15.00;68.29;100219.28;4860296;29;20029;-95
2021/11/13 02:03:58;;;;;;;10.05;1.75;;;;;;;14.99;68.27;100218.44;4859772;29;20037;-94
2021/11/13 02:06:24;;;;;;;3.80;1.27;;;;;;;14.73;68.83;100217.28;4860035;29;20042;-94
2021/11/13 02:08:51;;;;;;;7.85;1.35;;;;;;;14.83;69.09;100216.34;4860196;29;20068;-95
2021/11/13 02:11:20;;;;;;;7.20;1.42;;;;;;;14.80;68.45;100208.66;4860029;29;20033;-93
2021/11/13 02:13:46;;;;;;;8.13;1.10;;;;;;;14.80;68.99;100207.84;4860000;29;20077;-94
2021/11/13 02:16:11;;;;;;;6.75;1.15;;;;;;;14.73;69.06;100206.72;4859870;29;20025;-95
2021/11/13 02:18:38;;;;;;;4.95;1.20;;;;;;;14.39;69.41;100213.09;4859845;29;20030;-95
2021/11/13 02:21:04;;;;;;;8.07;1.48;;;;;;;14.70;69.23;100231.59;4859964;29;20037;-94
2021/11/13 02:23:29;;;;;;;8.60;1.10;;;;;;;14.84;68.83;100235.66;4859743;29;20073;-94
2021/11/13 02:25:55;;;;;;;3.45;0.90;;;;;;;14.88;68.23;100245.81;4859866;29;20045;-95
2021/11/13 02:28:23;;;;;;;3.00;0.75;;;;;;;14.94;68.83;100249.75;4860247;29;20033;-94
2021/11/13 02:30:51;;;;;;;4.20;0.65;;;;;;;15.07;68.54;100246.84;4859840;29;20041;-94
2021/11/13 02:33:16;;;;;;;6.32;1.13;;;;;;;15.13;68.06;100245.47;4859350;29;20517;-94
2021/11/13 02:35:43;;;;;;;5.72;1.42;;;;;;;15.16;67.94;100243.38;4859541;29;20059;-95
2021/11/13 02:38:11;;;;;;;6.45;1.33;;;;;;;14.97;68.77;100249.47;4858579;29;20440;-95
2021/11/13 02:40:38;;;;;;;7.10;0.98;;;;;;;15.09;68.48;100244.91;4862723;29;20105;-94
2021/11/13 02:43:04;;;;;;;4.28;0.82;;;;;;;15.23;68.07;100260.38;4863399;29;20484;-93
2021/11/13 02:45:31;;;;;;;3.25;0.73;;;;;;;15.19;67.95;100266.06;4863286;29;20036;-95
2021/11/13 02:48:00;;;;;;;3.60;1.02;;;;;;;15.41;67.46;100281.69;4863008;29;20033;-94
2021/11/13 02:50:25;;;;;;;3.03;0.68;;;;;;;15.44;67.40;100273.47;4863338;29;20034;-94
2021/11/13 02:52:55;;;;;;;2.80;0.80;;;;;;;15.42;67.75;100272.78;4863023;29;20036;-95
2021/11/13 02:55:22;;;;;;;6.03;0.65;;;;;;;15.32;67.24;100263.97;4863433;29;20484;-94
2021/11/13 02:57:47;;;;;;;3.13;1.15;;;;;;;15.39;67.14;100262.47;4863376;29;20033;-95
2021/11/13 03:00:16;;;;;;;7.80;0.80;;;;;;;15.40;67.39;100261.50;4863394;29;20097;-95
2021/11/13 03:02:42;;;;;;;2.03;0.73;;;;;;;15.50;67.14;100273.88;4862818;29;20025;-94
2021/11/13 03:05:28;;;;;;;3.28;0.77;;;;;;;15.32;67.71;100266.63;4862969;29;20544;-94
2021/11/13 03:07:55;;;;;;;2.75;0.60;;;;;;;15.47;67.28;100265.25;4861715;29;20082;-94
2021/11/13 03:10:22;;;;;;;2.42;0.60;;;;;;;15.53;67.38;100273.59;4862996;29;20033;-94
2021/11/13 03:12:48;;;;;;;4.20;0.63;;;;;;;15.53;67.00;100279.72;4863085;29;20041;-94
2021/11/13 03:15:16;;;;;;;2.58;0.60;;;;;;;15.60;67.32;100280.84;4862886;29;20033;-93
2021/11/13 03:17:42;;;;;;;2.00;0.77;;;;;;;15.58;67.38;100281.94;4862461;29;20040;-94
2021/11/13 03:20:10;;;;;;;7.35;0.80;;;;;;;15.53;66.75;100279.72;4860886;29;20108;-94
2021/11/13 03:22:37;;;;;;;5.97;0.88;;;;;;;15.48;67.39;100276.66;4862727;29;20037;-94
2021/11/13 03:25:05;;;;;;;3.58;0.98;;;;;;;15.56;67.27;100284.75;4862294;29;20029;-94
2021/11/13 03:27:32;;;;;;;6.13;0.88;;;;;;;15.57;66.94;100283.75;4862374;29;20026;-94
2021/11/13 03:29:57;;;;;;;5.32;0.95;;;;;;;15.61;67.36;100295.75;4862633;29;20390;-93
2021/11/13 03:32:23;;;;;;;3.88;0.80;;;;;;;15.67;66.62;100291.69;4862277;29;20030;-93
2021/11/13 03:34:48;;;;;;;2.55;0.57;;;;;;;15.67;66.66;100286.41;4862555;29;20026;-93
2021/11/13 03:37:14;;;;;;;6.60;1.08;;;;;;;15.61;67.00;100287.81;4862518;29;20033;-94
2021/11/13 03:39:39;;;;;;;5.10;0.93;;;;;;;15.57;67.10;100297.00;4862392;29;20078;-93
2021/11/13 03:42:05;;;;;;;6.25;1.00;;;;;;;15.60;67.06;100290.59;4862228;29;20023;-94
2021/11/13 03:44:30;;;;;;;3.97;0.70;;;;;;;15.63;66.95;100295.59;4862258;29;20473;-94
2021/11/13 03:46:56;;;;;;;3.40;0.80;;;;;;;15.57;66.86;100301.47;4861713;29;20030;-93
2021/11/13 03:49:22;;;;;;;1.85;0.82;;;;;;;15.59;66.78;100308.28;4862126;29;20032;-94
2021/11/13 03:51:47;;;;;;;1.98;0.52;;;;;;;15.63;67.06;100308.84;4861734;29;20038;-94
2021/11/13 03:54:12;;;;;;;4.55;0.65;;;;;;;15.67;66.72;100312.88;4862549;29;20061;-94
2021/11/13 03:56:38;;;;;;;2.90;0.65;;;;;;;15.69;66.97;100318.03;4862126;29;20081;-94
2021/11/13 03:59:05;;;;;;;2.10;0.73;;;;;;;15.63;66.73;100322.06;4862009;29;20112;-94
2021/11/13 04:01:33;;;;;;;2.78;1.05;;;;;;;15.65;66.50;100318.31;4861707;29;20040;-94
2021/11/13 04:03:59;;;;;;;1.88;0.70;;;;;;;15.70;66.84;100322.34;4861673;29;20082;-94
2021/11/13 04:06:25;;;;;;;3.20;0.70;;;;;;;15.68;66.56;100325.16;4861834;29;20120;-94
2021/11/13 04:08:51;;;;;;;5.75;1.00;;;;;;;15.65;66.88;100333.34;4862246;29;20502;-94
2021/11/13 04:11:16;;;;;;;2.92;0.93;;;;;;;15.67;66.98;100329.59;4861855;29;20029;-95
2021/11/13 04:13:41;;;;;;;3.20;0.80;;;;;;;15.69;67.07;100347.16;4861853;29;20112;-94
2021/11/13 04:16:07;;;;;;;2.58;0.80;;;;;;;15.68;66.91;100341.03;4861426;29;20037;-93
2021/11/13 04:18:33;;;;;;;2.15;0.70;;;;;;;15.62;66.47;100338.91;4861304;29;20028;-94
2021/11/13 04:20:58;;;;;;;6.18;1.10;;;;;;;15.63;66.86;100349.38;4861522;29;20419;-94
2021/11/13 04:23:23;;;;;;;2.80;0.98;;;;;;;15.64;67.09;100339.63;4861372;29;20033;-93
2021/11/13 04:25:49;;;;;;;4.22;1.10;;;;;;;15.46;66.63;100342.97;4861391;29;20477;-94
2021/11/13 04:28:15;;;;;;;3.97;0.93;;;;;;;15.50;67.19;100345.31;4861535;29;20085;-93
2021/11/13 04:30:41;;;;;;;5.38;0.88;;;;;;;15.53;66.67;100353.00;4861446;29;20388;-92
2021/11/13 04:33:06;;;;;;;7.28;1.13;;;;;;;15.50;67.30;100355.91;4861125;29;20032;-94
2021/11/13 04:38:00;;;;;;;4.55;1.20;;;;;;;15.52;67.24;100359.25;4861435;29;20116;-94
2021/11/13 04:40:28;;;;;;;6.28;1.10;;;;;;;15.47;67.39;100357.03;4861354;29;20081;-94
2021/11/13 04:42:54;;;;;;;5.90;1.40;;;;;;;15.14;67.65;100360.84;4861268;29;20061;-93
2021/11/13 04:45:20;;;;;;;3.42;0.98;;;;;;;15.20;67.42;100365.59;4861107;29;20084;-94
2021/11/13 04:47:46;;;;;;;4.85;1.00;;;;;;;15.41;67.19;100365.50;4860897;29;20033;-93
2021/11/13 04:50:16;;;;;;;7.07;1.35;;;;;;;15.26;67.39;100357.09;4861471;29;20030;-94
2021/11/13 04:52:42;;;;;;;4.93;0.90;;;;;;;15.42;67.25;100357.44;4861063;29;20036;-93
2021/11/13 04:55:09;;;;;;;5.40;1.20;;;;;;;15.34;67.52;100365.19;4861238;29;20030;-94
2021/11/13 04:57:34;;;;;;;3.67;0.90;;;;;;;15.50;66.93;100363.84;4860994;29;20030;-94
2021/11/13 05:00:00;;;;;;;4.65;0.73;;;;;;;15.39;67.19;100363.00;4860897;29;20109;-94
2021/11/13 05:02:25;;;;;;;3.15;1.10;;;;;;;15.40;67.02;100380.56;4859824;29;20026;-94
2021/11/13 05:04:54;;;;;;;3.53;1.00;;;;;;;15.40;66.98;100367.31;4861122;29;20070;-94
2021/11/13 05:07:21;;;;;;;5.93;0.80;;;;;;;15.48;66.76;100374.56;4861062;29;20116;-95
2021/11/13 05:09:48;;;;;;;5.28;1.23;;;;;;;15.42;66.57;100381.25;4860398;29;20029;-94
2021/11/13 05:12:13;;;;;;;5.57;1.10;;;;;;;15.40;66.91;100385.84;4860628;29;20100;-94
2021/11/13 05:14:38;;;;;;;5.60;1.00;;;;;;;15.37;67.05;100391.41;4860832;29;20121;-94
2021/11/13 05:17:04;;;;;;;5.55;1.10;;;;;;;15.34;67.05;100401.41;4860234;29;20033;-93
2021/11/13 05:19:29;;;;;;;4.57;0.88;;;;;;;15.46;66.67;100405.59;4860458;29;20223;-95
2021/11/13 05:21:54;;;;;;;11.05;1.20;;;;;;;15.02;67.78;100416.47;4860566;29;20025;-94
2021/11/13 05:24:20;;;;;;;8.38;0.93;;;;;;;15.17;67.33;100410.84;4860441;29;20032;-93
2021/11/13 05:26:45;;;;;;;4.80;1.08;;;;;;;15.24;67.60;100407.53;4860546;29;20097;-94
2021/11/13 05:29:11;;;;;;;6.63;1.00;;;;;;;15.53;66.94;100409.41;4860588;29;20056;-94
2021/11/13 05:31:36;;;;;;;7.72;0.88;;;;;;;15.53;66.70;100413.84;4860123;29;20121;-93
2021/11/13 05:34:01;;;;;;;4.95;1.10;;;;;;;15.61;66.28;100411.38;4859763;29;20090;-94
2021/11/13 05:36:27;;;;;;;6.65;1.13;;;;;;;15.69;66.08;100419.44;4859558;29;20057;-93
2021/11/13 05:38:52;;;;;;;6.00;0.93;;;;;;;15.65;66.49;100415.41;4860684;29;20082;-94
2021/11/13 05:41:17;;;;;;;4.78;1.67;;;;;;;15.65;66.23;100418.06;4860243;29;20089;-94
2021/11/13 05:43:43;;;;;;;4.00;1.33;;;;;;;15.70;66.55;100425.56;4860310;29;20025;-94
2021/11/13 05:46:08;;;;;;;6.18;1.00;;;;;;;15.72;66.30;100427.13;4858657;29;20029;-94
2021/11/13 05:48:33;;;;;;;5.55;0.95;;;;;;;15.71;66.11;100435.19;4859920;29;20161;-93
2021/11/13 05:50:59;;;;;;;5.05;1.15;;;;;;;15.78;65.82;100431.06;4860226;29;20472;-93
2021/11/13 05:53:24;;;;;;;4.03;0.90;;;;;;;15.74;65.98;100433.16;4860061;29;20116;-93
2021/11/13 05:55:51;;;;;;;3.13;0.95;;;;;;;15.69;66.07;100432.69;4860205;29;20028;-93
2021/11/13 05:58:18;;;;;;;2.95;0.82;;;;;;;15.48;66.59;100446.00;4860407;29;20040;-93
2021/11/13 06:00:44;;;;;;;5.55;0.93;;;;;;;15.27;67.93;100451.38;4859678;29;20503;-93
2021/11/13 06:03:09;;;;;;;2.53;0.80;;;;;;;15.44;67.01;100450.75;4859854;29;20026;-92
2021/11/13 06:05:35;;;;;;;6.22;1.10;;;;;;;15.68;65.72;100452.19;4859746;29;20034;-93
2021/11/13 06:08:00;;;;;;;4.32;0.80;;;;;;;15.83;65.92;100460.59;4859704;29;20054;-93
2021/11/13 06:10:26;;;;;;;5.70;1.02;;;;;;;15.77;65.97;100456.69;4860077;29;20396;-92
2021/11/13 06:12:51;;;;;;;7.82;1.48;;;;;;;15.76;66.25;100455.03;4859762;29;20301;-94
2021/11/13 06:15:16;;;;;;;3.97;1.20;;;;;;;15.74;65.73;100449.03;4859878;29;20029;-94
2021/11/13 06:17:42;;;;;;;4.38;1.02;;;;;;;15.79;65.35;100454.75;4859854;29;20499;-94
2021/11/13 06:20:09;;;;;;;3.17;1.10;;;;;;;15.71;65.63;100451.91;4859836;29;20041;-94
2021/11/13 06:22:35;;;;;;;4.45;0.90;;;;;;;15.75;65.37;100463.94;4859747;29;20040;-93
2021/11/13 06:25:00;;;;;;;2.00;0.90;;;;;;;15.74;64.85;100461.41;4859883;29;20116;-93
2021/11/13 06:27:25;;;;;;;5.45;1.67;;;;;;;15.53;65.07;100464.97;4859858;29;20033;-93
2021/11/13 06:29:51;;;;;;;2.95;0.77;;;;;;;15.73;64.89;100473.81;4859357;29;20029;-93
2021/11/13 06:32:17;;;;;;;5.57;0.70;;;;;;;15.77;64.89;100477.03;4859591;29;20029;-93
2021/11/13 06:34:42;;;;;;;3.42;0.70;;;;;;;15.60;64.91;100471.41;4859883;29;20037;-94
2021/11/13 06:37:09;;;;;;;3.33;0.63;;;;;;;15.77;64.99;100487.63;4859711;29;20379;-94
2021/11/13 06:39:34;;;;;;;5.97;1.45;;;;;;;15.79;64.71;100486.50;4859785;29;20492;-93
2021/11/13 06:42:04;;;;;;;1.85;0.70;;;;;;;15.79;64.85;100485.69;4859733;29;20072;-93
2021/11/13 06:44:29;;;;;;;2.08;0.80;;;;;;;15.86;64.90;100503.53;4859226;29;20038;-94
2021/11/13 06:46:55;;;;;;;3.28;0.82;;;;;;;15.79;65.09;100509.50;4859562;29;20034;-94
2021/11/13 06:49:20;;;;;;;4.20;1.00;;;;;;;15.81;65.13;100515.50;4859447;29;20488;-93
2021/11/13 06:51:46;;;;;;;5.97;0.90;;;;;;;15.81;64.90;100516.34;4858290;29;20384;-93
2021/11/13 06:54:12;;;;;;;5.35;0.93;;;;;;;15.86;65.01;100523.88;4858338;29;20397;-94
2021/11/13 06:56:39;;;;;;;2.60;0.75;;;;;;;15.82;64.82;100527.78;4859609;29;20544;-93
2021/11/13 06:59:04;;;;;;;1.17;0.47;;;;;;;15.84;64.88;100529.31;4859340;29;20124;-93
2021/11/13 07:01:30;;;;;;;1.98;0.80;;;;;;;15.73;65.51;100518.81;4859583;29;20114;-93
2021/11/13 07:03:55;;;;;;;3.05;0.77;;;;;;;15.81;65.17;100521.63;4859547;29;20026;-93
2021/11/13 07:06:21;;;;;;;3.28;0.90;;;;;;;15.81;65.08;100521.63;4857981;29;20070;-93
2021/11/13 07:08:46;;;;;;;2.42;0.80;;;;;;;15.86;64.78;100526.53;4859276;29;20120;-94
2021/11/13 07:11:11;;;;;;;7.10;0.70;;;;;;;15.82;64.29;100533.91;4859320;29;20026;-95
2021/11/13 07:13:37;;;;;;;3.15;0.82;;;;;;;15.83;64.34;100534.72;4859395;29;20477;-93
2021/11/13 07:16:03;;;;;;;2.30;0.60;;;;;;;15.82;64.51;100541.84;4858800;29;20065;-93
2021/11/13 07:18:28;;;;;;;2.10;0.50;;;;;;;15.85;64.47;100543.38;4859324;29;20033;-93
2021/11/13 07:21:00;;;;;;;6.32;0.82;;;;;;;15.86;64.01;100550.38;4859128;29;20437;-93
2021/11/13 07:23:27;;;;;;;2.40;0.80;;;;;;;15.80;63.74;100569.44;4859152;29;20068;-92
2021/11/13 07:25:53;;;;;;;2.70;0.63;;;;;;;15.86;63.02;100568.91;4860879;29;20062;-93
2021/11/13 07:28:20;;;;;;;1.73;0.65;;;;;;;15.96;63.55;100572.41;4861153;29;20393;-93
2021/11/13 07:30:48;;;;;;;3.03;0.50;;;;;;;15.97;63.69;100583.84;4861874;29;20516;-93
2021/11/13 07:33:14;;;;;;;1.88;0.60;;;;;;;15.91;63.19;100597.63;4862085;29;20036;-91
2021/11/13 07:35:42;;;;;;;2.72;0.60;;;;;;;16.03;62.89;100599.19;4862360;29;20030;-92
2021/11/13 07:38:08;;;;;;;1.17;0.40;;;;;;;15.93;62.95;100600.97;4862279;29;20029;-92
2021/11/13 07:40:34;;;;;;;3.47;0.82;;;;;;;15.98;62.95;100602.25;4862233;29;20266;-92
2021/11/13 07:43:00;;;;;;;4.53;0.60;;;;;;;15.99;63.24;100603.06;4859452;29;20344;-93
2021/11/13 07:45:30;;;;;;;1.65;0.40;;;;;;;15.99;63.01;100611.00;4860273;29;20061;-93
2021/11/13 07:47:56;;;;;;;1.60;0.40;;;;;;;15.99;63.75;100605.72;4859901;29;20045;-93
2021/11/13 07:50:23;;;;;;;5.20;0.52;;;;;;;16.05;63.12;100615.78;4860857;29;20032;-92
2021/11/13 07:52:48;;;;;;;2.28;0.40;;;;;;;16.08;62.92;100618.16;4860841;29;20100;-93
2021/11/13 07:55:16;;;;;;;1.45;0.40;;;;;;;16.11;63.18;100620.53;4860474;29;20109;-92
2021/11/13 07:57:42;;;;;;;3.50;0.43;;;;;;;16.03;62.44;100626.53;4859867;29;20092;-93
2021/11/13 08:00:10;;;;;;;2.45;0.55;;;;;;;16.11;63.12;100623.19;4858402;29;20069;-93
2021/11/13 08:02:36;;;;;;;3.30;0.60;;;;;;;15.94;62.27;100615.91;4860390;29;20045;-94
2021/11/13 08:05:01;;;;;;;1.75;0.40;;;;;;;16.10;62.22;100612.75;4859645;29;20519;-92
2021/11/13 08:07:27;;;;;;;1.77;0.40;;;;;;;16.14;62.42;100609.69;4864942;29;20033;-94
2021/11/13 08:09:53;;;;;;;2.15;0.50;;;;;;;16.17;62.78;100612.06;4863692;29;20044;-95
2021/11/13 08:12:20;;;;;;;4.43;0.40;;;;;;;16.09;61.47;100609.22;4876398;29;20037;-92
2021/11/13 08:14:45;;;;;;;2.67;0.57;;;;;;;16.15;61.29;100608.72;4861020;29;20454;-92
2021/11/13 08:17:11;;;;;;;1.63;0.30;;;;;;;16.04;61.49;100619.41;4861423;29;20029;-92
2021/11/13 08:19:36;;;;;;;0.45;0.25;;;;;;;16.02;61.89;100624.00;4860736;29;20049;-93
2021/11/13 08:22:06;;;;;;;0.80;0.40;;;;;;;15.98;61.75;100633.19;4861244;29;20033;-92
2021/11/13 08:24:32;;;;;;;2.88;0.30;;;;;;;15.92;61.58;100628.44;4863507;29;20025;-92
2021/11/13 08:26:57;;;;;;;1.60;0.43;;;;;;;16.02;61.32;100639.91;4857825;29;20481;-92
2021/11/13 08:29:23;;;;;;;1.67;0.30;;;;;;;16.13;61.62;100642.41;4860103;29;20036;-95
2021/11/13 08:31:48;;;;;;;2.45;0.55;;;;;;;16.18;62.06;100645.53;4860512;29;20500;-94
2021/11/13 08:34:14;;;;;;;2.20;0.45;;;;;;;16.31;61.79;100641.78;4861083;29;20037;-96
2021/11/13 08:36:40;;;;;;;0.75;0.28;;;;;;;16.40;61.33;100638.31;4861043;29;20124;-89
2021/11/13 08:39:07;;;;;;;0.65;0.20;;;;;;;16.55;61.43;100644.91;4871225;29;20643;-90
2021/11/13 08:41:33;;;;;;;2.00;0.35;;;;;;;16.65;61.22;100653.72;4860616;29;20057;-91
2021/11/13 08:43:58;;;;;;;3.95;0.30;;;;;;;16.52;61.01;100652.31;4860655;29;20063;-92
2021/11/13 08:46:24;;;;;;;3.97;0.43;;;;;;;16.72;60.53;100658.47;4860346;29;20037;-92
2021/11/13 08:48:49;;;;;;;1.08;0.30;;;;;;;16.81;60.72;100663.81;4862054;29;20034;-95
2021/11/13 08:51:15;;;;;;;2.72;0.40;;;;;;;16.89;60.46;100665.78;4861138;29;20037;-93
2021/11/13 08:53:40;;;;;;;1.35;0.38;;;;;;;16.85;60.22;100672.34;4870516;29;20033;-92
2021/11/13 08:56:06;;;;;;;2.42;0.40;;;;;;;17.09;59.90;100666.59;4860455;29;20057;-94
2021/11/13 08:58:32;;;;;;;1.00;0.40;;;;;;;17.30;60.15;100670.91;4871848;29;20380;-95
2021/11/13 09:01:01;;;;;;;1.17;0.30;;;;;;;17.40;59.57;100669.09;4868872;29;20029;-93
2021/11/13 09:03:38;;;;;;;2.00;0.40;;;;;;;17.54;59.58;100670.47;4860519;29;20025;-92
2021/11/13 09:06:08;;;;;;;0.80;0.30;;;;;;;17.63;59.18;100665.16;4859614;29;20037;-92
2021/11/13 09:08:34;;;;;;;4.45;0.65;;;;;;;17.72;59.15;100665.25;4870723;29;20033;-93
2021/11/13 09:11:00;;;;;;;2.17;0.32;;;;;;;17.88;58.08;100667.34;4862166;29;20060;-93
2021/11/13 09:13:28;;;;;;;2.40;0.40;;;;;;;17.89;57.74;100674.31;4863189;29;20056;-94
2021/11/13 09:15:56;;;;;;;2.45;0.40;;;;;;;17.63;58.15;100674.91;4862090;29;20034;-93
2021/11/13 09:18:21;;;;;;;4.18;1.50;;;;;;;17.80;57.90;100679.47;4860569;29;20029;-92
2021/11/13 09:20:47;;;;;;;1.55;0.40;;;;;;;17.96;57.88;100686.03;4860609;29;20037;-94
2021/11/13 09:23:13;;;;;;;1.67;0.35;;;;;;;17.98;57.20;100679.59;4859630;29;20030;-93
2021/11/13 09:25:41;;;;;;;4.38;0.40;;;;;;;17.95;56.96;100679.91;4860504;29;20033;-95
2021/11/13 09:28:07;;;;;;;1.77;0.73;;;;;;;17.89;57.35;100684.94;4859670;29;20033;-94
2021/11/13 09:30:36;;;;;;;1.48;0.30;;;;;;;17.75;57.38;100689.72;4856743;29;20492;-93
2021/11/13 09:33:02;;;;;;;0.98;0.32;;;;;;;17.71;57.49;100690.13;4860265;29;20021;-95
2021/11/13 09:35:30;;;;;;;2.78;0.60;;;;;;;17.87;57.84;100697.53;4860532;29;20032;-93
2021/11/13 09:37:56;;;;;;;1.80;0.52;;;;;;;18.01;57.86;100703.22;4858915;29;20037;-94
2021/11/13 09:40:24;;;;;;;3.00;0.50;;;;;;;17.85;57.72;100708.28;4859102;29;20032;-94
2021/11/13 09:42:53;;;;;;;4.30;0.60;;;;;;;18.03;57.48;100713.72;4859453;29;20033;-96
2021/11/13 09:45:19;;;;;;;1.88;0.38;;;;;;;18.06;57.97;100717.88;4859524;29;20025;-92
2021/11/13 09:47:47;;;;;;;1.63;0.47;;;;;;;18.08;57.63;100716.75;4865908;29;20044;-93
2021/11/13 09:50:13;;;;;;;3.13;0.60;;;;;;;17.93;57.11;100715.53;4859315;29;20025;-94
2021/11/13 09:52:40;;;;;;;1.58;0.30;;;;;;;17.92;57.87;100724.50;4865436;29;20091;-95
2021/11/13 09:55:07;;;;;;;1.98;0.35;;;;;;;17.91;58.07;100730.78;4875873;29;20021;-93
2021/11/13 09:57:34;;;;;;;1.85;0.32;;;;;;;17.97;57.44;100730.19;4859533;29;20036;-93
2021/11/13 09:59:59;;;;;;;0.52;0.28;;;;;;;17.94;57.84;100741.13;4860155;29;20647;-93
2021/11/13 10:02:25;;;;;;;5.63;0.70;;;;;;;18.03;57.79;100735.78;4859270;29;20041;-93
2021/11/13 10:04:50;;;;;;;2.15;0.40;;;;;;;17.45;57.75;100742.00;4860317;29;20381;-93
2021/11/13 10:07:16;;;;;;;4.10;1.10;;;;;;;17.89;57.06;100746.03;4858363;29;20438;-95
2021/11/13 10:09:41;;;;;;;1.23;0.40;;;;;;;18.03;58.04;100748.25;4859627;29;20032;-95
2021/11/13 10:12:07;;;;;;;3.53;0.38;;;;;;;18.09;57.26;100750.31;4858714;29;20034;-93
2021/11/13 10:14:35;;;;;;;3.80;0.38;;;;;;;17.95;57.49;100748.97;4874221;29;20030;-94
2021/11/13 10:17:01;;;;;;;4.78;0.50;;;;;;;18.00;58.22;100751.19;4860188;29;20425;-95
2021/11/13 10:19:28;;;;;;;3.70;0.50;;;;;;;17.96;57.72;100753.28;4859334;29;20022;-95
2021/11/13 10:21:57;;;;;;;1.45;0.50;;;;;;;18.04;58.22;100757.88;4864144;29;20009;-95
2021/11/13 10:24:28;;;;;;;2.10;0.45;;;;;;;18.14;58.28;100761.34;4863550;29;20033;-96
2021/11/13 10:27:00;;;;;;;1.05;0.35;;;;;;;18.17;57.56;100765.56;4870147;29;20017;-96
2021/11/13 10:29:28;;;;;;;;;;;;;;;18.24;58.23;100763.97;4863849;29;20076;-92
2021/11/13 10:32:00;;;;;;;3.63;0.30;;;;;;;18.06;58.62;100766.53;4867270;29;19920;-96
2021/11/13 10:34:26;;;;;;;;;;;;;;;18.32;57.98;100766.72;4859531;29;20840;-94
2021/11/13 10:36:59;;;;;;;3.10;0.40;;;;;;;18.27;57.41;100763.69;4858442;29;20375;-93
2021/11/13 10:39:45;;;;;;;5.03;0.43;;;;;;;18.41;57.96;100765.03;4855684;29;20420;-92
2021/11/13 10:42:19;;;;;;;2.05;0.60;;;;;;;18.52;57.21;100770.16;4856529;29;20053;-92
2021/11/13 10:44:46;;;;;;;2.10;0.35;;;;;;;18.56;56.95;100768.88;4857209;29;20081;-94
2021/11/13 10:47:13;;;;;;;1.13;0.28;;;;;;;18.64;56.78;100776.09;4858806;29;20157;-95
2021/11/13 10:49:39;;;;;;;1.95;0.50;;;;;;;18.54;56.49;100775.31;4866783;29;20064;-96
2021/11/13 10:52:06;;;;;;;0.82;0.30;;;;;;;18.48;56.83;100768.75;4875370;29;20037;-96
2021/11/13 10:54:33;;;;;;;0.57;0.32;;;;;;;18.30;56.61;100774.00;4881894;29;20022;-96
2021/11/13 10:57:05;;;;;;;1.63;0.50;;;;;;;18.34;57.08;100779.88;4882603;29;20033;-96
2021/11/13 10:59:34;;;;;;;1.70;0.50;;;;;;;18.27;57.01;100762.88;4964517;23;20091;-96
2021/11/13 11:04:38;;;;;;;4.43;0.52;;;;;;;18.48;57.13;100770.59;5521869;23;20274;-96
2021/11/13 11:32:58;;;;;;;2.33;0.95;;;;;;;18.68;55.38;100753.56;5533785;23;20053;-96
2021/11/13 11:35:29;;;;;;;2.45;0.80;;;;;;;18.77;54.54;100765.13;4857438;29;20492;-96
2021/11/13 11:37:59;;;;;;;2.42;0.68;;;;;;;18.65;55.76;100764.50;4860918;29;20093;-96
2021/11/13 11:40:30;;;;;;;2.38;0.82;;;;;;;19.02;55.30;100759.13;4860309;29;20122;-93
2021/11/13 11:42:58;;;;;;;5.05;0.43;;;;;;;19.22;55.75;100761.66;4861404;29;20022;-94
2021/11/13 11:45:26;;;;;;;2.25;0.35;;;;;;;19.19;54.42;100764.59;4851534;29;20035;-96
2021/11/13 11:47:53;;;;;;;0.90;0.35;;;;;;;19.14;54.02;100758.91;4830078;29;21071;-94
2021/11/13 11:50:25;;;;;;;7.00;1.63;;;;;;;19.22;54.43;100758.97;4828392;29;20044;-96
2021/11/13 11:52:59;;;;;;;3.10;0.75;;;;;;;19.11;54.18;100761.88;4839421;29;20050;-93
2021/11/13 11:55:25;;;;;;;3.42;0.30;;;;;;;19.21;53.74;100758.16;4856472;29;20101;-96